createdAt,value
2019-05-07T00:01:54.792Z,4.92
2019-05-07T00:04:23.639Z,6.23
2019-05-07T00:06:54.066Z,6.50
2019-05-07T00:09:24.387Z,4.62
2019-05-07T00:12:06.560Z,6.87
2019-05-07T00:14:36.993Z,4.65
2019-05-07T00:17:07.409Z,7.87
2019-05-07T00:19:37.985Z,5.65
2019-05-07T00:22:08.399Z,4.65
2019-05-07T00:24:38.897Z,5.37
2019-05-07T00:27:12.946Z,5.22
2019-05-07T00:29:43.050Z,6.60
2019-05-07T00:32:13.583Z,7.50
2019-05-07T00:34:48.524Z,5.97
2019-05-07T00:37:28.458Z,7.00
2019-05-07T00:40:12.918Z,5.17
2019-05-07T00:43:02.592Z,5.42
2019-05-07T00:45:42.122Z,8.75
2019-05-07T00:48:12.770Z,6.83
2019-05-07T00:50:44.646Z,6.05
2019-05-07T00:53:14.963Z,4.83
2019-05-07T00:55:45.423Z,4.50
2019-05-07T00:58:15.830Z,4.47
2019-05-07T01:00:46.243Z,7.33
2019-05-07T01:03:16.765Z,6.35
2019-05-07T01:05:47.234Z,5.70
2019-05-07T01:08:17.698Z,7.40
2019-05-07T01:10:48.151Z,6.72
2019-05-07T01:13:18.663Z,6.77
2019-05-07T01:15:49.209Z,4.55
2019-05-07T01:18:19.608Z,7.03
2019-05-07T01:20:50.040Z,6.80
2019-05-07T01:23:22.664Z,7.17
2019-05-07T01:25:52.903Z,5.50
2019-05-07T01:28:24.498Z,5.92
2019-05-07T01:30:55.101Z,6.60
2019-05-07T01:33:42.258Z,6.08
2019-05-07T01:36:16.125Z,6.53
2019-05-07T01:38:47.609Z,5.90
2019-05-07T01:41:18.026Z,7.23
2019-05-07T01:43:48.509Z,8.13
2019-05-07T01:46:19.020Z,7.40
2019-05-07T01:48:49.480Z,6.65
2019-05-07T01:51:22.133Z,8.03
2019-05-07T01:53:52.516Z,6.45
2019-05-07T01:56:23.149Z,6.72
2019-05-07T01:58:53.513Z,9.48
2019-05-07T02:01:24.106Z,5.90
2019-05-07T02:04:07.471Z,5.47
2019-05-07T02:06:59.786Z,6.45
2019-05-07T02:09:52.104Z,6.50
2019-05-07T02:12:33.831Z,6.07
2019-05-07T02:15:04.579Z,7.83
2019-05-07T02:17:35.284Z,8.00
2019-05-07T02:20:06.853Z,7.12
2019-05-07T02:22:37.197Z,6.65
2019-05-07T02:25:07.665Z,8.03
2019-05-07T02:27:38.118Z,5.37
2019-05-07T02:30:08.591Z,8.88
2019-05-07T02:32:39.102Z,6.90
2019-05-07T02:35:13.357Z,8.78
2019-05-07T02:37:57.125Z,6.62
2019-05-07T02:40:36.449Z,7.65
2019-05-07T02:43:06.971Z,6.47
2019-05-07T02:46:17.490Z,7.90
2019-05-07T02:48:42.769Z,7.97
2019-05-07T02:51:19.817Z,6.62
2019-05-07T02:54:13.344Z,6.97
2019-05-07T02:56:43.939Z,6.53
2019-05-07T02:59:14.433Z,7.23
2019-05-07T03:01:44.924Z,6.30
2019-05-07T03:04:15.402Z,8.80
2019-05-07T03:06:45.985Z,8.37
2019-05-07T03:09:16.413Z,7.25
2019-05-07T03:11:46.808Z,6.08
2019-05-07T03:14:17.354Z,7.70
2019-05-07T03:16:49.443Z,7.60
2019-05-07T03:19:19.908Z,7.37
2019-05-07T03:21:54.107Z,10.20
2019-05-07T03:24:47.023Z,6.50
2019-05-07T03:27:17.536Z,8.13
2019-05-07T03:29:55.308Z,8.07
2019-05-07T03:32:47.697Z,7.87
2019-05-07T03:35:37.311Z,6.37
2019-05-07T03:38:04.536Z,10.57
2019-05-07T03:40:35.881Z,8.97
2019-05-07T03:43:06.627Z,7.10
2019-05-07T03:45:56.171Z,6.67
2019-05-07T03:48:27.844Z,7.13
2019-05-07T03:50:58.358Z,8.00
2019-05-07T03:53:29.830Z,7.25
2019-05-07T03:56:03.656Z,8.83
2019-05-07T03:58:33.966Z,7.83
2019-05-07T04:01:04.842Z,6.57
2019-05-07T04:03:35.322Z,5.73
2019-05-07T04:06:06.059Z,9.50
2019-05-07T04:08:36.599Z,7.75
2019-05-07T04:11:07.083Z,6.67
2019-05-07T04:13:37.522Z,8.33
2019-05-07T04:16:13.419Z,7.83
2019-05-07T04:18:39.933Z,6.90
2019-05-07T04:21:13.603Z,6.80
2019-05-07T04:23:43.636Z,9.30
2019-05-07T04:26:23.500Z,7.37
2019-05-07T04:28:59.894Z,8.38
2019-05-07T04:31:34.178Z,7.70
2019-05-07T04:34:13.159Z,8.43
2019-05-07T04:36:45.385Z,7.17
2019-05-07T04:39:15.755Z,16.03
2019-05-07T04:41:46.253Z,6.50
2019-05-07T04:44:16.602Z,8.03
2019-05-07T04:46:48.385Z,6.87
2019-05-07T04:49:19.141Z,7.70
2019-05-07T04:51:55.746Z,8.03
2019-05-07T04:54:26.145Z,7.85
2019-05-07T04:56:56.682Z,7.03
2019-05-07T04:59:27.130Z,6.95
2019-05-07T05:02:07.977Z,7.40
2019-05-07T05:04:38.348Z,6.72
2019-05-07T05:07:08.856Z,5.80
2019-05-07T05:09:39.279Z,10.63
2019-05-07T05:12:09.706Z,6.60
2019-05-07T05:14:40.120Z,7.42
2019-05-07T05:17:13.016Z,7.43
2019-05-07T05:19:44.003Z,11.05
2019-05-07T05:22:23.848Z,8.30
2019-05-07T05:25:19.335Z,13.70
2019-05-07T05:27:49.664Z,8.70
2019-05-07T05:30:26.180Z,9.60
2019-05-07T05:32:56.825Z,10.15
2019-05-07T05:35:27.437Z,14.83
2019-05-07T05:37:57.738Z,9.58
2019-05-07T05:40:28.154Z,10.18
2019-05-07T05:43:04.981Z,12.93
2019-05-07T05:45:42.437Z,24.75
2019-05-07T05:48:13.626Z,10.25
2019-05-07T05:51:06.199Z,8.30
2019-05-07T05:53:49.825Z,10.78
2019-05-07T05:56:29.243Z,8.18
2019-05-07T05:59:06.065Z,13.78
2019-05-07T06:02:05.929Z,13.25
2019-05-07T06:04:46.977Z,10.65
2019-05-07T06:07:25.825Z,10.95
2019-05-07T06:10:14.624Z,10.63
2019-05-07T06:13:08.955Z,9.03
2019-05-07T06:17:44.562Z,11.78
2019-05-07T06:20:26.366Z,11.22
2019-05-07T06:23:22.692Z,12.65
2019-05-07T06:26:06.958Z,19.12
2019-05-07T06:28:42.539Z,25.62
2019-05-07T06:31:22.713Z,18.65
2019-05-07T06:33:54.654Z,20.60
2019-05-07T06:36:25.912Z,23.92
2019-05-07T06:39:44.582Z,15.70
2019-05-07T06:42:55.295Z,24.55
2019-05-07T06:45:35.383Z,24.43
2019-05-07T06:48:05.991Z,13.95
2019-05-07T06:50:39.945Z,17.25
2019-05-07T06:53:11.946Z,19.00
2019-05-07T06:55:42.867Z,16.25
2019-05-07T06:58:16.736Z,12.43
2019-05-07T07:01:12.116Z,11.53
2019-05-07T07:04:02.910Z,12.03
2019-05-07T07:06:42.720Z,16.00
2019-05-07T07:09:25.646Z,17.42
2019-05-07T07:12:02.045Z,16.15
2019-05-07T07:14:33.207Z,9.70
2019-05-07T07:17:05.230Z,7.45
2019-05-07T07:19:36.335Z,12.13
2019-05-07T07:22:07.108Z,12.15
2019-05-07T07:24:37.670Z,12.03
2019-05-07T07:27:09.236Z,15.83
2019-05-07T07:29:47.514Z,17.27
2019-05-07T07:32:22.106Z,13.78
2019-05-07T07:34:53.941Z,14.53
2019-05-07T07:37:32.022Z,13.95
2019-05-07T07:40:22.743Z,14.15
2019-05-07T07:42:53.051Z,13.20
2019-05-07T07:45:23.496Z,10.98
2019-05-07T07:47:55.884Z,15.00
2019-05-07T07:50:26.517Z,12.85
2019-05-07T07:52:57.821Z,11.83
2019-05-07T07:57:45.698Z,13.08
2019-05-07T08:00:29.994Z,9.15
2019-05-07T08:03:02.845Z,7.25
2019-05-07T08:05:33.567Z,14.25
2019-05-07T08:08:04.430Z,11.73
2019-05-07T08:10:35.078Z,8.78
2019-05-07T08:13:19.766Z,12.90
2019-05-07T08:15:51.903Z,7.17
2019-05-07T08:18:22.888Z,7.22
2019-05-07T08:21:03.898Z,7.72
2019-05-07T08:23:43.828Z,23.47
2019-05-07T08:26:14.487Z,16.62
2019-05-07T08:28:46.729Z,10.78
2019-05-07T08:31:38.226Z,13.58
2019-05-07T08:34:31.938Z,11.43
2019-05-07T08:37:02.609Z,14.18
2019-05-07T08:39:33.056Z,11.53
2019-05-07T08:42:03.777Z,9.68
2019-05-07T08:44:43.641Z,11.12
2019-05-07T08:47:26.738Z,12.55
2019-05-07T08:49:58.853Z,17.23
2019-05-07T08:55:27.692Z,6.78
2019-05-07T08:57:58.357Z,9.25
2019-05-07T09:00:32.629Z,14.98
2019-05-07T09:03:20.069Z,16.50
2019-05-07T09:05:46.829Z,11.25
2019-05-07T09:08:17.221Z,14.07
2019-05-07T09:28:02.671Z,17.35
2019-05-07T09:30:52.835Z,9.85
2019-05-07T09:33:32.865Z,12.33
2019-05-07T09:36:23.610Z,17.02
2019-05-07T09:38:59.333Z,10.55
2019-05-07T09:41:34.009Z,10.68
2019-05-07T09:47:45.950Z,12.95
2019-05-07T09:50:29.615Z,11.65
2019-05-07T09:53:02.266Z,27.13
2019-05-07T09:55:36.225Z,13.28
2019-05-07T09:58:07.588Z,8.43
2019-05-07T10:00:54.399Z,14.38
2019-05-07T10:03:24.575Z,14.05
2019-05-07T10:05:57.107Z,16.37
2019-05-07T10:08:32.143Z,12.70
2019-05-07T10:14:01.939Z,16.27
2019-05-07T10:19:14.332Z,9.53
2019-05-07T10:27:35.268Z,14.20
2019-05-07T10:30:05.906Z,12.03
2019-05-07T10:32:36.616Z,12.95
2019-05-07T10:35:07.293Z,22.82
2019-05-07T10:40:19.825Z,16.02
2019-05-07T10:42:51.893Z,14.90
2019-05-07T10:51:01.972Z,12.95
2019-05-07T10:53:54.095Z,13.83
2019-05-07T10:56:27.310Z,15.45
2019-05-07T11:02:12.594Z,22.67
2019-05-07T11:04:45.942Z,13.20
2019-05-07T11:07:17.832Z,19.65
2019-05-07T11:12:31.995Z,15.05
2019-05-07T11:15:02.614Z,21.23
2019-05-07T11:20:18.231Z,25.12
2019-05-07T11:22:48.709Z,14.10
2019-05-07T11:25:24.498Z,11.80
2019-05-07T11:27:55.246Z,13.22
2019-05-07T11:30:25.826Z,16.95
2019-05-07T11:32:56.919Z,12.95
2019-05-07T11:35:27.635Z,7.50
2019-05-07T11:37:57.995Z,13.80
2019-05-07T11:40:28.689Z,9.28
2019-05-07T11:43:18.728Z,12.93
2019-05-07T11:46:13.051Z,6.95
2019-05-07T11:48:54.721Z,12.30
2019-05-07T11:51:39.258Z,9.38
2019-05-07T11:54:12.626Z,8.98
2019-05-07T11:56:43.263Z,6.72
2019-05-07T11:59:13.875Z,9.33
2019-05-07T12:01:48.264Z,10.50
2019-05-07T12:06:14.264Z,15.90
2019-05-07T12:08:56.317Z,26.95
2019-05-07T12:11:38.643Z,29.52
2019-05-07T12:14:12.383Z,21.07
2019-05-07T12:19:33.784Z,17.02
2019-05-07T12:22:07.290Z,16.12
2019-05-07T12:24:38.617Z,10.55
2019-05-07T12:27:11.777Z,9.95
2019-05-07T12:29:43.753Z,16.85
2019-05-07T12:32:32.366Z,9.20
2019-05-07T12:35:09.617Z,11.30
2019-05-07T12:37:42.382Z,8.50
2019-05-07T12:40:12.567Z,6.80
2019-05-07T12:42:45.721Z,15.30
2019-05-07T12:45:16.622Z,4.20
2019-05-07T12:47:49.835Z,7.70
2019-05-07T12:50:21.863Z,8.30
2019-05-07T12:52:58.765Z,6.15
2019-05-07T12:55:36.890Z,8.85
2019-05-07T12:58:07.501Z,7.45
2019-05-07T13:00:56.230Z,6.37
2019-05-07T13:03:38.590Z,6.05
2019-05-07T13:09:01.386Z,14.28
2019-05-07T13:11:38.366Z,23.92
2019-05-07T13:14:12.567Z,29.80
2019-05-07T13:16:44.251Z,58.45
2019-05-07T13:22:06.045Z,17.62
2019-05-07T13:24:45.224Z,19.52
2019-05-07T13:32:24.893Z,13.72
2019-05-07T13:34:55.402Z,21.90
2019-05-07T13:37:28.295Z,15.35
2019-05-07T13:40:07.316Z,11.75
2019-05-07T13:43:03.084Z,12.20
2019-05-07T13:45:44.518Z,18.70
2019-05-07T13:48:24.575Z,13.13
2019-05-07T13:50:58.174Z,10.03
2019-05-07T13:53:34.753Z,8.40
2019-05-07T13:56:05.924Z,8.03
2019-05-07T13:58:36.552Z,7.97
2019-05-07T14:01:22.846Z,10.20
2019-05-07T14:03:54.063Z,21.40
2019-05-07T14:06:39.182Z,13.68
2019-05-07T14:09:15.471Z,14.45
2019-05-07T14:11:45.960Z,17.12
2019-05-07T14:14:17.075Z,19.60
2019-05-07T14:16:47.471Z,14.33
2019-05-07T14:19:18.015Z,20.68
2019-05-07T14:21:48.486Z,15.83
2019-05-07T14:24:18.950Z,25.68
2019-05-07T14:26:49.267Z,13.78
2019-05-07T14:29:19.950Z,10.98
2019-05-07T14:31:56.924Z,6.90
2019-05-07T14:34:34.146Z,5.15
2019-05-07T14:37:12.935Z,14.40
2019-05-07T14:39:46.497Z,9.35
2019-05-07T14:42:24.055Z,8.38
2019-05-07T14:44:54.396Z,9.10
2019-05-07T14:47:24.742Z,10.20
2019-05-07T14:49:55.188Z,9.48
2019-05-07T14:52:32.560Z,7.37
2019-05-07T14:54:57.799Z,5.67
2019-05-07T14:57:28.207Z,9.38
2019-05-07T14:59:58.530Z,7.62
2019-05-07T15:02:28.872Z,6.67
2019-05-07T15:04:59.185Z,7.37
2019-05-07T15:07:29.549Z,7.22
2019-05-07T15:10:02.199Z,10.82
2019-05-07T15:12:33.012Z,5.70
2019-05-07T15:15:03.717Z,9.83
2019-05-07T15:17:41.963Z,8.40
2019-05-07T15:20:12.615Z,7.03
2019-05-07T15:22:59.151Z,7.45
2019-05-07T15:25:29.474Z,5.75
2019-05-07T15:28:01.636Z,4.05
2019-05-07T15:30:44.329Z,7.53
2019-05-07T15:33:14.682Z,4.50
2019-05-07T15:35:45.085Z,5.70
2019-05-07T15:38:15.442Z,3.75
2019-05-07T15:40:45.811Z,10.32
2019-05-07T15:43:16.238Z,5.47
2019-05-07T15:45:46.717Z,7.15
2019-05-07T15:48:17.160Z,5.42
2019-05-07T15:50:47.573Z,5.55
2019-05-07T15:53:28.054Z,3.42
2019-05-07T15:55:58.667Z,6.08
2019-05-07T15:58:29.146Z,6.22
2019-05-07T16:00:59.496Z,6.12
2019-05-07T16:03:34.802Z,6.30
2019-05-07T16:06:05.207Z,9.10
2019-05-07T16:08:42.523Z,10.20
2019-05-07T16:11:13.257Z,7.40
2019-05-07T16:13:48.522Z,4.08
2019-05-07T16:16:18.854Z,5.85
2019-05-07T16:19:08.186Z,4.85
2019-05-07T16:21:38.685Z,3.87
2019-05-07T16:24:09.160Z,5.50
2019-05-07T16:26:41.707Z,3.35
2019-05-07T16:29:13.286Z,5.72
2019-05-07T16:31:44.409Z,6.83
2019-05-07T16:34:14.991Z,4.47
2019-05-07T16:36:45.412Z,3.80
2019-05-07T16:39:15.747Z,6.20
2019-05-07T16:41:46.176Z,5.60
2019-05-07T16:44:16.619Z,5.12
2019-05-07T16:46:47.065Z,3.12
2019-05-07T16:49:17.545Z,4.08
2019-05-07T16:51:47.973Z,5.83
2019-05-07T16:54:18.282Z,9.85
2019-05-07T16:57:06.248Z,4.60
2019-05-07T16:59:36.914Z,4.45
2019-05-07T17:02:13.385Z,5.72
2019-05-07T17:05:03.206Z,4.47
2019-05-07T17:07:52.120Z,5.17
2019-05-07T17:10:22.603Z,4.35
2019-05-07T17:12:53.128Z,4.37
2019-05-07T17:15:23.545Z,4.15
2019-05-07T17:17:59.458Z,3.33
2019-05-07T17:20:29.840Z,4.60
2019-05-07T17:23:02.758Z,4.87
2019-05-07T17:25:38.475Z,3.22
2019-05-07T17:28:08.950Z,2.95
2019-05-07T17:30:39.418Z,6.80
2019-05-07T17:33:12.774Z,4.15
2019-05-07T17:35:46.187Z,6.10
2019-05-07T17:38:16.455Z,5.25
2019-05-07T17:40:46.864Z,3.60
2019-05-07T17:43:17.370Z,4.55
2019-05-07T17:45:47.794Z,5.33
2019-05-07T17:48:18.312Z,8.65
2019-05-07T17:51:12.439Z,5.33
2019-05-07T17:53:56.570Z,5.27
2019-05-07T17:56:15.061Z,4.92
2019-05-07T17:59:04.721Z,4.87
2019-05-07T18:01:56.893Z,6.50
2019-05-07T18:04:28.685Z,5.55
2019-05-07T18:07:00.569Z,5.27
2019-05-07T18:09:31.867Z,6.47
2019-05-07T18:12:02.565Z,6.12
2019-05-07T18:14:33.248Z,7.15
2019-05-07T18:17:21.908Z,7.33
2019-05-07T18:19:51.861Z,4.77
2019-05-07T18:22:22.276Z,4.03
2019-05-07T18:24:52.704Z,5.50
2019-05-07T18:27:24.945Z,3.90
2019-05-07T18:29:55.516Z,8.25
2019-05-07T18:32:32.300Z,5.80
2019-05-07T18:35:02.437Z,6.83
2019-05-07T18:37:32.951Z,11.08
2019-05-07T18:40:03.327Z,19.43
2019-05-07T18:42:33.789Z,13.93
2019-05-07T18:45:04.141Z,15.78
2019-05-07T18:47:34.848Z,13.95
2019-05-07T18:50:05.353Z,17.30
2019-05-07T18:52:35.866Z,13.93
2019-05-07T18:55:06.336Z,13.55
2019-05-07T18:57:36.807Z,10.80
2019-05-07T19:00:08.470Z,13.32
2019-05-07T19:02:39.165Z,5.85
2019-05-07T19:05:28.661Z,11.28
2019-05-07T19:08:05.315Z,11.63
2019-05-07T19:10:32.927Z,11.47
2019-05-07T19:13:03.090Z,15.25
2019-05-07T19:15:33.409Z,9.18
2019-05-07T19:18:03.715Z,6.40
2019-05-07T19:20:34.216Z,7.47
2019-05-07T19:23:04.629Z,6.58
2019-05-07T19:25:35.050Z,6.92
2019-05-07T19:28:05.575Z,12.70
2019-05-07T19:30:35.960Z,13.32
2019-05-07T19:33:06.329Z,11.53
2019-05-07T19:35:36.695Z,8.65
2019-05-07T19:38:07.543Z,7.53
2019-05-07T19:40:38.067Z,7.22
2019-05-07T19:43:08.532Z,6.97
2019-05-07T19:45:39.108Z,5.55
2019-05-07T19:48:09.582Z,6.30
2019-05-07T19:50:41.822Z,5.95
2019-05-07T19:53:13.125Z,6.12
2019-05-07T19:56:02.112Z,5.25
2019-05-07T19:58:33.300Z,6.80
2019-05-07T20:01:04.856Z,5.10
2019-05-07T20:03:36.355Z,10.50
2019-05-07T20:06:06.796Z,7.08
2019-05-07T20:08:37.200Z,10.55
2019-05-07T20:11:14.249Z,3.77
2019-05-07T20:13:44.834Z,6.55
2019-05-07T20:16:18.659Z,7.83
2019-05-07T20:18:49.029Z,7.40
2019-05-07T20:21:19.510Z,8.03
2019-05-07T20:23:52.488Z,4.35
2019-05-07T20:26:23.104Z,11.08
2019-05-07T20:28:53.986Z,7.85
2019-05-07T20:31:25.668Z,8.60
2019-05-07T20:33:56.200Z,4.80
2019-05-07T20:36:26.635Z,9.60
2019-05-07T20:38:57.180Z,6.15
2019-05-07T20:41:28.616Z,5.40
2019-05-07T20:43:59.185Z,5.67
2019-05-07T20:46:31.751Z,5.87
2019-05-07T20:49:02.884Z,7.67
2019-05-07T20:51:33.673Z,7.67
2019-05-07T20:54:23.140Z,8.10
2019-05-07T20:56:59.463Z,8.50
2019-05-07T20:59:30.193Z,6.00
2019-05-07T21:02:02.323Z,6.80
2019-05-07T21:04:34.047Z,6.15
2019-05-07T21:07:04.537Z,7.30
2019-05-07T21:09:35.035Z,7.65
2019-05-07T21:12:05.489Z,7.78
2019-05-07T21:14:35.965Z,12.00
2019-05-07T21:17:18.534Z,8.58
2019-05-07T21:19:49.026Z,7.40
2019-05-07T21:22:19.517Z,6.95
2019-05-07T21:24:53.003Z,6.58
2019-05-07T21:27:23.124Z,8.85
2019-05-07T21:29:53.612Z,11.22
2019-05-07T21:32:25.071Z,8.05
2019-05-07T21:34:55.714Z,8.78
2019-05-07T21:37:26.126Z,9.85
2019-05-07T21:39:56.634Z,8.00
2019-05-07T21:42:27.173Z,10.75
2019-05-07T21:44:57.743Z,9.15
2019-05-07T21:47:28.198Z,10.88
2019-05-07T21:49:58.719Z,6.50
2019-05-07T21:52:32.951Z,8.50
2019-05-07T21:55:13.914Z,8.55
2019-05-07T21:57:54.527Z,6.55
2019-05-07T22:00:48.365Z,9.78
2019-05-07T22:03:20.336Z,8.43
2019-05-07T22:05:51.740Z,9.35
2019-05-07T22:08:22.365Z,8.08
2019-05-07T22:10:52.755Z,7.58
2019-05-07T22:13:23.142Z,5.55
2019-05-07T22:15:55.150Z,10.20
2019-05-07T22:18:25.915Z,8.13
2019-05-07T22:20:56.348Z,5.80
2019-05-07T22:23:26.797Z,6.78
2019-05-07T22:25:58.540Z,7.00
2019-05-07T22:28:32.054Z,5.95
2019-05-07T22:31:16.392Z,8.68
2019-05-07T22:33:54.064Z,7.53
2019-05-07T22:36:25.734Z,6.62
2019-05-07T22:39:01.958Z,8.70
2019-05-07T22:41:34.121Z,7.20
2019-05-07T22:44:05.387Z,7.50
2019-05-07T22:46:35.773Z,5.85
2019-05-07T22:49:06.378Z,9.18
2019-05-07T22:51:36.788Z,7.77
2019-05-07T22:54:07.226Z,9.75
2019-05-07T22:57:13.974Z,9.03
2019-05-07T22:59:43.780Z,6.92
2019-05-07T23:02:14.206Z,6.85
2019-05-07T23:04:44.735Z,7.42
2019-05-07T23:07:15.086Z,9.33
2019-05-07T23:09:45.548Z,8.40
2019-05-07T23:12:16.067Z,8.03
2019-05-07T23:14:46.531Z,8.03
2019-05-07T23:17:17.097Z,9.40
2019-05-07T23:19:47.584Z,7.45
2019-05-07T23:22:18.054Z,7.95
2019-05-07T23:24:48.570Z,9.73
2019-05-07T23:27:19.112Z,7.77
2019-05-07T23:29:49.481Z,12.40
2019-05-07T23:32:22.096Z,7.55
2019-05-07T23:34:52.788Z,9.28
2019-05-07T23:37:23.386Z,8.63
2019-05-07T23:39:55.822Z,8.38
2019-05-07T23:42:30.068Z,10.90
2019-05-07T23:45:01.954Z,9.00
2019-05-07T23:47:33.588Z,8.73
2019-05-07T23:50:04.525Z,7.67
2019-05-07T23:52:35.063Z,8.53
2019-05-07T23:55:05.591Z,9.43
2019-05-07T23:57:36.032Z,8.57
